Terminal Aerodrome Forecast
Issued by NWS Des Moines, IA

Home | Current Version | Previous Version | Text Only | Print | Product List | Glossary On
Versions: 1 2 3 4 5 6 7 8 9 10 11 12 13 14 15
000
FTUS43 KDMX 101506 AAB
TAFDSM
TAF AMD
KDSM 101506Z 1015/1112 13006KT 4SM -SN SCT020 OVC035
     FM101600 13007KT 2SM -SN SCT015 OVC025
      TEMPO 1016/1018 1/2SM SN SCT005 OVC012
     FM101900 14010KT P6SM SCT020 OVC030
     FM110200 14011G17KT 3SM BR VCSH SCT015 OVC025=

USA.gov is the U.S. government's official web portal to all federal, state and local government web resources and services.